createdAt,value
2023-04-01T00:03:26.748Z,82.12
2023-04-01T00:08:19.912Z,82.12
2023-04-01T00:13:12.735Z,82.19
2023-04-01T00:18:05.857Z,82.40
2023-04-01T00:22:59.021Z,82.40
2023-04-01T00:27:56.740Z,82.30
2023-04-01T00:32:53.446Z,82.15
2023-04-01T00:37:46.279Z,82.00
2023-04-01T00:42:39.442Z,82.41
2023-04-01T00:47:32.334Z,82.63
2023-04-01T00:52:27.965Z,82.60
2023-04-01T00:57:27.585Z,82.50
2023-04-01T01:02:21.748Z,82.85
2023-04-01T01:07:17.515Z,82.82
2023-04-01T01:12:20.776Z,82.80
2023-04-01T01:17:19.609Z,83.02
2023-04-01T01:22:50.373Z,83.09
2023-04-01T01:27:49.754Z,82.95
2023-04-01T01:33:03.759Z,82.84
2023-04-01T01:38:03.396Z,83.08
2023-04-01T01:43:01.524Z,83.04
2023-04-01T01:47:59.078Z,82.82
2023-04-01T01:52:52.020Z,82.86
2023-04-01T01:57:47.463Z,82.94
2023-04-01T02:02:48.929Z,82.94
2023-04-01T02:07:45.497Z,82.98
2023-04-01T02:12:40.203Z,83.10
2023-04-01T02:17:34.812Z,82.99
2023-04-01T02:22:42.735Z,83.06
2023-04-01T02:27:36.318Z,83.21
2023-04-01T02:32:31.811Z,83.03
2023-04-01T02:37:25.360Z,82.96
2023-04-01T02:42:19.350Z,82.76
2023-04-01T02:47:12.206Z,82.99
2023-04-01T02:52:05.319Z,83.04
2023-04-01T02:56:58.207Z,83.09
2023-04-01T03:01:51.060Z,83.18
2023-04-01T03:06:43.865Z,83.24
2023-04-01T03:11:36.755Z,82.84
2023-04-01T03:16:29.860Z,83.09
2023-04-01T03:21:25.185Z,82.92
2023-04-01T03:26:18.434Z,83.03
2023-04-01T03:31:12.527Z,83.29
2023-04-01T03:36:09.209Z,83.56
2023-04-01T03:41:04.187Z,83.54
2023-04-01T03:45:59.144Z,83.84
2023-04-01T03:50:52.094Z,83.98
2023-04-01T03:55:45.830Z,83.82
2023-04-01T04:00:38.786Z,83.58
2023-04-01T04:05:32.488Z,83.60
2023-04-01T04:10:26.860Z,83.72
2023-04-01T04:15:20.247Z,83.81
2023-04-01T04:20:13.858Z,83.84
2023-04-01T04:25:07.622Z,83.79
2023-04-01T04:30:00.614Z,83.85
2023-04-01T04:34:53.568Z,84.06
2023-04-01T04:39:46.656Z,84.00
2023-04-01T04:44:39.571Z,84.08
2023-04-01T04:49:33.595Z,84.01
2023-04-01T04:54:29.808Z,83.98
2023-04-01T04:59:24.247Z,83.79
2023-04-01T05:04:52.609Z,83.67
2023-04-01T05:09:46.891Z,83.67
2023-04-01T05:14:40.152Z,83.61
2023-04-01T05:19:35.984Z,83.40
2023-04-01T05:24:29.092Z,83.57
2023-04-01T05:29:21.993Z,83.52
2023-04-01T05:34:17.301Z,83.19
2023-04-01T05:39:10.778Z,83.31
2023-04-01T05:44:04.585Z,83.23
2023-04-01T05:49:06.192Z,83.21
2023-04-01T05:53:59.398Z,82.77
2023-04-01T05:58:55.301Z,82.73
2023-04-01T06:03:49.275Z,82.19
2023-04-01T06:08:42.199Z,81.79
2023-04-01T06:14:00.545Z,82.00
2023-04-01T06:19:12.526Z,82.11
2023-04-01T06:24:22.034Z,82.40
2023-04-01T06:29:49.337Z,82.53
2023-04-01T06:34:57.513Z,82.49
2023-04-01T06:40:35.717Z,82.37
2023-04-01T06:45:54.892Z,82.63
2023-04-01T06:51:34.202Z,82.73
2023-04-01T06:56:51.164Z,82.91
2023-04-01T07:01:55.236Z,82.79
2023-04-01T07:06:59.447Z,82.58
2023-04-01T07:11:54.214Z,82.55
2023-04-01T07:17:17.227Z,82.52
2023-04-01T07:22:32.153Z,82.50
2023-04-01T07:28:23.304Z,82.09
2023-04-01T07:33:43.337Z,81.53
2023-04-01T07:39:01.283Z,80.90
2023-04-01T07:44:36.981Z,81.03
2023-04-01T07:49:38.442Z,81.40
2023-04-01T07:54:57.636Z,81.18
2023-04-01T08:00:02.734Z,81.19
2023-04-01T08:05:28.926Z,81.49
2023-04-01T08:10:38.862Z,81.51
2023-04-01T08:15:53.313Z,81.11
2023-04-01T08:21:06.304Z,80.26
2023-04-01T08:26:05.768Z,80.02
2023-04-01T08:31:32.476Z,79.71
2023-04-01T08:36:33.706Z,79.54
2023-04-01T08:41:54.023Z,79.55
2023-04-01T08:47:26.430Z,79.30
2023-04-01T08:52:38.155Z,78.92
2023-04-01T08:57:40.320Z,78.61
2023-04-01T09:03:36.379Z,78.77
2023-04-01T09:08:47.502Z,78.66
2023-04-01T09:14:07.783Z,78.88
2023-04-01T09:19:24.136Z,78.93
2023-04-01T09:24:36.705Z,79.20
2023-04-01T09:29:38.798Z,79.00
2023-04-01T09:34:56.173Z,79.14
2023-04-01T09:40:03.173Z,79.10
2023-04-01T09:45:25.153Z,79.16
2023-04-01T09:51:15.078Z,79.03
2023-04-01T09:56:35.972Z,78.32
2023-04-01T10:01:38.190Z,78.19
2023-04-01T10:07:23.246Z,78.12
2023-04-01T10:12:41.571Z,77.87
2023-04-01T10:17:59.415Z,77.87
2023-04-01T10:23:16.376Z,78.32
2023-04-01T10:28:18.296Z,78.40
2023-04-01T10:33:52.444Z,78.55
2023-04-01T10:39:04.178Z,78.60
2023-04-01T10:44:26.306Z,79.09
2023-04-01T10:49:50.345Z,78.81
2023-04-01T10:55:20.720Z,79.09
2023-04-01T11:00:36.612Z,78.82
2023-04-01T11:06:18.683Z,78.54
2023-04-01T11:12:03.115Z,78.08
2023-04-01T11:16:59.474Z,78.30
2023-04-01T11:22:18.200Z,77.25
2023-04-01T11:27:33.298Z,76.58
2023-04-01T11:32:38.268Z,74.08
2023-04-01T11:37:57.257Z,72.70
2023-04-01T11:43:33.589Z,71.11
2023-04-01T11:49:24.073Z,70.34
2023-04-01T11:54:39.417Z,70.36
2023-04-01T11:59:54.376Z,69.84
2023-04-01T12:05:00.473Z,69.87
2023-04-01T12:09:56.238Z,70.09
2023-04-01T12:15:18.057Z,70.16
2023-04-01T12:20:14.602Z,71.01
2023-04-01T12:25:21.278Z,70.54
2023-04-01T12:30:43.655Z,70.66
2023-04-01T12:35:54.810Z,70.19
2023-04-01T12:41:24.468Z,70.39
2023-04-01T12:46:43.606Z,70.23
2023-04-01T12:51:55.947Z,70.03
2023-04-01T12:57:11.829Z,70.01
2023-04-01T13:02:25.869Z,70.35
2023-04-01T13:07:43.047Z,69.83
2023-04-01T13:12:49.775Z,70.72
2023-04-01T13:18:09.664Z,71.00
2023-04-01T13:23:11.554Z,70.25
2023-04-01T13:28:21.712Z,70.00
2023-04-01T13:33:31.116Z,70.07
2023-04-01T13:38:42.355Z,69.96
2023-04-01T13:43:42.085Z,70.13
2023-04-01T13:48:47.321Z,70.33
2023-04-01T13:53:46.227Z,70.44
2023-04-01T13:58:52.437Z,70.77
2023-04-01T14:04:22.620Z,70.88
2023-04-01T14:09:32.886Z,70.52
2023-04-01T14:15:09.771Z,70.43
2023-04-01T14:20:28.177Z,70.24
2023-04-01T14:25:42.744Z,69.87
2023-04-01T14:30:44.824Z,69.83
2023-04-01T14:35:44.409Z,70.35
2023-04-01T14:40:52.085Z,70.59
2023-04-01T14:46:07.619Z,70.95
2023-04-01T14:51:12.086Z,70.86
2023-04-01T14:56:05.636Z,71.08
2023-04-01T15:01:27.084Z,71.70
2023-04-01T15:06:58.163Z,71.97
2023-04-01T15:12:13.733Z,72.61
2023-04-01T15:17:31.094Z,73.15
2023-04-01T15:22:54.401Z,73.57
2023-04-01T15:27:57.674Z,73.87
2023-04-01T15:33:12.190Z,73.94
2023-04-01T15:38:27.176Z,74.07
2023-04-01T15:43:28.887Z,74.54
2023-04-01T15:48:58.715Z,74.72
2023-04-01T15:54:04.953Z,75.10
2023-04-01T15:59:16.487Z,75.57
2023-04-01T16:04:38.325Z,75.72
2023-04-01T16:09:58.760Z,76.30
2023-04-01T16:15:14.416Z,76.58
2023-04-01T16:20:20.217Z,77.04
2023-04-01T16:25:30.292Z,77.00
2023-04-01T16:30:39.566Z,77.09
2023-04-01T16:35:44.881Z,76.86
2023-04-01T16:41:15.871Z,76.78
2023-04-01T16:46:14.392Z,76.35
2023-04-01T16:51:17.225Z,76.30
2023-04-01T16:56:16.872Z,76.25
2023-04-01T17:01:38.667Z,76.42
2023-04-01T17:06:55.939Z,76.46
2023-04-01T17:12:10.333Z,76.80
2023-04-01T17:17:28.247Z,76.77
2023-04-01T17:22:29.345Z,77.13
2023-04-01T17:27:28.026Z,77.07
2023-04-01T17:32:42.973Z,77.22
2023-04-01T17:37:56.847Z,77.37
2023-04-01T17:43:34.978Z,77.60
2023-04-01T17:49:00.830Z,77.65
2023-04-01T17:54:20.532Z,77.99
2023-04-01T17:59:40.393Z,77.90
2023-04-01T18:05:46.895Z,78.24
2023-04-01T18:11:16.931Z,78.08
2023-04-01T18:16:27.982Z,78.18
2023-04-01T18:21:26.733Z,78.13
2023-04-01T18:26:35.774Z,77.98
2023-04-01T18:31:39.930Z,78.03
2023-04-01T18:36:55.418Z,77.97
2023-04-01T18:42:11.557Z,78.01
2023-04-01T18:47:25.944Z,77.92
2023-04-01T18:52:45.736Z,78.16
2023-04-01T18:57:57.773Z,78.19
2023-04-01T19:03:09.602Z,78.17
2023-04-01T19:08:37.373Z,78.17
2023-04-01T19:13:48.881Z,78.18
2023-04-01T19:19:00.676Z,78.05
2023-04-01T19:23:59.759Z,77.91
2023-04-01T19:28:55.810Z,78.02
2023-04-01T19:34:10.634Z,78.06
2023-04-01T19:39:29.567Z,78.03
2023-04-01T19:44:53.223Z,78.06
2023-04-01T19:49:55.649Z,77.84
2023-04-01T19:54:57.673Z,77.76
2023-04-01T20:00:04.409Z,77.75
2023-04-01T20:05:06.618Z,77.89
2023-04-01T20:10:10.998Z,77.78
2023-04-01T20:15:23.794Z,77.73
2023-04-01T20:20:28.542Z,77.72
2023-04-01T20:25:29.148Z,77.56
2023-04-01T20:30:54.717Z,77.78
2023-04-01T20:36:16.473Z,77.81
2023-04-01T20:41:27.669Z,77.99
2023-04-01T20:46:48.194Z,78.03
2023-04-01T20:51:47.186Z,78.06
2023-04-01T20:56:57.274Z,78.05
2023-04-01T21:02:04.635Z,77.98
2023-04-01T21:07:23.279Z,78.03
2023-04-01T21:12:22.125Z,78.09
2023-04-01T21:17:36.859Z,77.84
2023-04-01T21:22:29.688Z,77.88
2023-04-01T21:27:23.424Z,77.97
2023-04-01T21:32:43.069Z,77.59
2023-04-01T21:37:51.971Z,77.39
2023-04-01T21:42:56.830Z,77.20
2023-04-01T21:48:43.071Z,77.11
2023-04-01T21:54:16.746Z,76.99
2023-04-01T21:59:50.856Z,77.04
2023-04-01T22:04:53.465Z,76.91
2023-04-01T22:10:25.291Z,76.87
2023-04-01T22:15:50.734Z,76.73
2023-04-01T22:20:58.460Z,76.62
2023-04-01T22:26:11.173Z,76.69
2023-04-01T22:31:07.637Z,76.59
2023-04-01T22:36:08.140Z,76.55
2023-04-01T22:41:24.131Z,76.60
2023-04-01T22:47:00.507Z,76.55
2023-04-01T22:52:27.281Z,76.49
2023-04-01T22:57:39.156Z,76.42
2023-04-01T23:02:42.942Z,76.39
2023-04-01T23:07:51.188Z,76.41
2023-04-01T23:12:44.765Z,76.28
2023-04-01T23:18:03.617Z,76.50
2023-04-01T23:23:27.790Z,76.67
2023-04-01T23:28:28.211Z,76.79
2023-04-01T23:33:21.053Z,76.51
2023-04-01T23:38:15.462Z,76.76
2023-04-01T23:43:44.235Z,76.69
2023-04-01T23:48:43.160Z,76.62
2023-04-01T23:53:37.047Z,76.77
2023-04-01T23:58:57.732Z,76.76
